This is the latest recevied weather packets stored in our database for station/object K3PPP. If no packets are shown the sender has not sent any weather packets the latest 10 day(s).
| Time | Temp. | Humidity | Pressure | Rain* | Wind** | Luminosity | Snow |
|---|---|---|---|---|---|---|---|
| 1778264390 | 12.22° C | 57% | 1013.3 hPa | 0 mm | - | 77 W/m² | - |
| 1778264086 | 12.78° C | 55% | 1013.2 hPa | 0 mm | - | 77 W/m² | - |
| 1778263784 | 12.78° C | 55% | 1013.6 hPa | 0 mm | - | 196 W/m² | - |
| 1778263481 | 12.78° C | 55% | 1013.6 hPa | 0 mm | - | 211 W/m² | - |
| 1778263176 | 12.78° C | 55% | 1013.7 hPa | 0 mm | - | 136 W/m² | - |
| 1778262873 | 12.22° C | 56% | 1013.6 hPa | 0 mm | - | 240 W/m² | - |
| 1778262571 | 12.22° C | 56% | 1013.9 hPa | 0 mm | - | 153 W/m² | - |
| 1778262269 | 12.22° C | 56% | 1013.8 hPa | 0 mm | - | 113 W/m² | - |
| 1778261965 | 12.78° C | 54% | 1013.8 hPa | 0 mm | - | 193 W/m² | - |
| 1778261662 | 12.78° C | 53% | 1013.7 hPa | 0 mm | - | 167 W/m² | - |
| 1778261358 | 13.33° C | 52% | 1013.6 hPa | 0 mm | - | 169 W/m² | - |
| 1778261056 | 13.89° C | 52% | 1013.9 hPa | 0 mm | - | 400 W/m² | - |
| 1778260751 | 12.78° C | 53% | 1013.6 hPa | 0 mm | - | 858 W/m² | - |
| 1778260448 | 12.78° C | 53% | 1013.7 hPa | 0 mm | - | 315 W/m² | - |
| 1778260145 | 12.78° C | 53% | 1013.9 hPa | 0 mm | - | 232 W/m² | - |
| 1778259842 | 12.78° C | 54% | 1013.8 hPa | 0 mm | - | 394 W/m² | - |
| 1778259539 | 12.78° C | 53% | 1014 hPa | 0 mm | - | 233 W/m² | - |
| 1778259237 | 12.22° C | 53% | 1014.1 hPa | 0 mm | - | 361 W/m² | - |
| 1778258932 | 12.78° C | 52% | 1014.1 hPa | 0 mm | - | 173 W/m² | - |
| 1778258630 | 12.78° C | 53% | 1014.1 hPa | 0 mm | - | 605 W/m² | - |
| 1778258327 | 12.78° C | 53% | 1014 hPa | 0 mm | - | 295 W/m² | - |
| 1778258025 | 12.78° C | 52% | 1014.1 hPa | 0 mm | - | 243 W/m² | - |
| 1778257720 | 14.44° C | 49% | 1014 hPa | 0 mm | - | 883 W/m² | - |
| 1778257417 | 13.89° C | 53% | 1014 hPa | 0 mm | - | 926 W/m² | - |
| 1778257114 | 13.33° C | 51% | 1013.9 hPa | 0 mm | - | 339 W/m² | - |
* Rain latest hour (hover to see other rain measurements)
** Current wind speed in m/s (hover to see current wind gust speed)